sensor_id;sensor_type;location;lat;lon;timestamp;P1;durP1;ratioP1;P2;durP2;ratioP2
18322;SDS011;9287;49.456;11.064;2022-12-24T00:01:22;3.97;;;0.67;;
18322;SDS011;9287;49.456;11.064;2022-12-24T00:03:50;2.27;;;0.90;;
18322;SDS011;9287;49.456;11.064;2022-12-24T00:06:18;3.50;;;0.77;;
18322;SDS011;9287;49.456;11.064;2022-12-24T00:08:49;3.53;;;0.73;;
18322;SDS011;9287;49.456;11.064;2022-12-24T00:11:17;3.23;;;1.00;;
18322;SDS011;9287;49.456;11.064;2022-12-24T00:13:45;4.10;;;1.27;;
18322;SDS011;9287;49.456;11.064;2022-12-24T00:16:14;8.27;;;1.23;;
18322;SDS011;9287;49.456;11.064;2022-12-24T00:18:42;3.23;;;0.90;;
18322;SDS011;9287;49.456;11.064;2022-12-24T00:21:12;3.07;;;0.90;;
18322;SDS011;9287;49.456;11.064;2022-12-24T00:23:40;5.80;;;1.30;;
18322;SDS011;9287;49.456;11.064;2022-12-24T00:26:09;4.87;;;0.90;;
18322;SDS011;9287;49.456;11.064;2022-12-24T00:28:38;3.07;;;0.90;;
18322;SDS011;9287;49.456;11.064;2022-12-24T00:31:06;5.70;;;0.90;;
18322;SDS011;9287;49.456;11.064;2022-12-24T00:33:35;6.00;;;1.00;;
18322;SDS011;9287;49.456;11.064;2022-12-24T00:36:03;2.63;;;0.87;;
18322;SDS011;9287;49.456;11.064;2022-12-24T00:38:32;3.77;;;1.20;;
18322;SDS011;9287;49.456;11.064;2022-12-24T00:40:59;4.40;;;1.00;;
18322;SDS011;9287;49.456;11.064;2022-12-24T00:43:29;3.57;;;0.80;;
18322;SDS011;9287;49.456;11.064;2022-12-24T00:45:58;5.20;;;1.20;;
18322;SDS011;9287;49.456;11.064;2022-12-24T00:48:26;3.43;;;1.00;;
18322;SDS011;9287;49.456;11.064;2022-12-24T00:50:54;4.47;;;1.27;;
18322;SDS011;9287;49.456;11.064;2022-12-24T00:53:23;6.87;;;1.30;;
18322;SDS011;9287;49.456;11.064;2022-12-24T00:55:51;3.33;;;1.00;;
18322;SDS011;9287;49.456;11.064;2022-12-24T00:58:19;5.27;;;1.13;;
18322;SDS011;9287;49.456;11.064;2022-12-24T01:00:48;3.07;;;0.80;;
18322;SDS011;9287;49.456;11.064;2022-12-24T01:03:16;3.20;;;1.33;;
18322;SDS011;9287;49.456;11.064;2022-12-24T01:05:44;5.50;;;1.33;;
18322;SDS011;9287;49.456;11.064;2022-12-24T01:08:10;5.90;;;1.10;;
18322;SDS011;9287;49.456;11.064;2022-12-24T01:10:38;5.67;;;1.23;;
18322;SDS011;9287;49.456;11.064;2022-12-24T01:13:06;5.00;;;1.60;;
18322;SDS011;9287;49.456;11.064;2022-12-24T01:15:35;4.77;;;0.80;;
18322;SDS011;9287;49.456;11.064;2022-12-24T01:18:04;2.70;;;0.90;;
18322;SDS011;9287;49.456;11.064;2022-12-24T01:20:32;4.43;;;0.97;;
18322;SDS011;9287;49.456;11.064;2022-12-24T01:23:00;3.53;;;0.80;;
18322;SDS011;9287;49.456;11.064;2022-12-24T01:25:28;5.00;;;0.90;;
18322;SDS011;9287;49.456;11.064;2022-12-24T01:27:55;5.63;;;1.20;;
18322;SDS011;9287;49.456;11.064;2022-12-24T01:30:24;4.10;;;0.80;;
18322;SDS011;9287;49.456;11.064;2022-12-24T01:32:52;3.67;;;0.90;;
18322;SDS011;9287;49.456;11.064;2022-12-24T01:35:21;5.83;;;0.90;;
18322;SDS011;9287;49.456;11.064;2022-12-24T01:37:48;5.53;;;0.97;;
18322;SDS011;9287;49.456;11.064;2022-12-24T01:40:16;7.30;;;1.40;;
18322;SDS011;9287;49.456;11.064;2022-12-24T01:43:11;6.37;;;1.37;;
18322;SDS011;9287;49.456;11.064;2022-12-24T01:45:54;3.73;;;1.20;;
18322;SDS011;9287;49.456;11.064;2022-12-24T01:51:14;5.80;;;1.37;;
18322;SDS011;9287;49.456;11.064;2022-12-24T01:53:46;8.07;;;0.97;;
18322;SDS011;9287;49.456;11.064;2022-12-24T01:56:18;4.07;;;0.90;;
18322;SDS011;9287;49.456;11.064;2022-12-24T01:58:47;5.43;;;1.00;;
18322;SDS011;9287;49.456;11.064;2022-12-24T02:01:19;3.30;;;1.03;;
18322;SDS011;9287;49.456;11.064;2022-12-24T02:03:47;4.77;;;1.10;;
18322;SDS011;9287;49.456;11.064;2022-12-24T02:06:16;3.53;;;0.90;;
18322;SDS011;9287;49.456;11.064;2022-12-24T02:08:46;5.53;;;1.10;;
18322;SDS011;9287;49.456;11.064;2022-12-24T02:11:15;5.93;;;1.10;;
18322;SDS011;9287;49.456;11.064;2022-12-24T02:13:45;5.30;;;1.07;;
18322;SDS011;9287;49.456;11.064;2022-12-24T02:16:20;7.73;;;1.13;;
18322;SDS011;9287;49.456;11.064;2022-12-24T02:19:02;5.13;;;1.20;;
18322;SDS011;9287;49.456;11.064;2022-12-24T02:21:55;6.23;;;1.10;;
18322;SDS011;9287;49.456;11.064;2022-12-24T02:27:41;3.17;;;0.87;;
18322;SDS011;9287;49.456;11.064;2022-12-24T02:30:22;5.90;;;1.30;;
18322;SDS011;9287;49.456;11.064;2022-12-24T02:32:59;5.93;;;1.00;;
18322;SDS011;9287;49.456;11.064;2022-12-24T02:35:41;4.60;;;1.17;;
18322;SDS011;9287;49.456;11.064;2022-12-24T02:38:16;5.73;;;1.10;;
18322;SDS011;9287;49.456;11.064;2022-12-24T02:40:52;5.43;;;1.00;;
18322;SDS011;9287;49.456;11.064;2022-12-24T02:43:25;5.57;;;1.40;;
18322;SDS011;9287;49.456;11.064;2022-12-24T02:45:58;4.87;;;1.00;;
18322;SDS011;9287;49.456;11.064;2022-12-24T02:48:29;7.87;;;1.17;;
18322;SDS011;9287;49.456;11.064;2022-12-24T02:51:01;9.20;;;1.53;;
18322;SDS011;9287;49.456;11.064;2022-12-24T02:53:30;5.17;;;0.90;;
18322;SDS011;9287;49.456;11.064;2022-12-24T02:56:09;4.17;;;1.07;;
18322;SDS011;9287;49.456;11.064;2022-12-24T02:58:49;4.83;;;1.00;;
18322;SDS011;9287;49.456;11.064;2022-12-24T03:01:31;8.17;;;1.27;;
18322;SDS011;9287;49.456;11.064;2022-12-24T03:04:15;7.07;;;1.50;;
18322;SDS011;9287;49.456;11.064;2022-12-24T03:07:05;4.90;;;0.93;;
18322;SDS011;9287;49.456;11.064;2022-12-24T03:09:43;5.10;;;1.00;;
18322;SDS011;9287;49.456;11.064;2022-12-24T03:12:21;5.33;;;1.00;;
18322;SDS011;9287;49.456;11.064;2022-12-24T03:14:54;7.47;;;1.20;;
18322;SDS011;9287;49.456;11.064;2022-12-24T03:17:23;4.27;;;0.80;;
18322;SDS011;9287;49.456;11.064;2022-12-24T03:19:51;4.73;;;1.10;;
18322;SDS011;9287;49.456;11.064;2022-12-24T03:22:21;6.03;;;1.10;;
18322;SDS011;9287;49.456;11.064;2022-12-24T03:24:50;5.17;;;1.10;;
18322;SDS011;9287;49.456;11.064;2022-12-24T03:27:18;5.27;;;1.27;;
18322;SDS011;9287;49.456;11.064;2022-12-24T03:29:47;4.70;;;1.17;;
18322;SDS011;9287;49.456;11.064;2022-12-24T03:32:14;7.67;;;1.20;;
18322;SDS011;9287;49.456;11.064;2022-12-24T03:34:51;5.53;;;1.00;;
18322;SDS011;9287;49.456;11.064;2022-12-24T03:37:19;6.37;;;1.03;;
18322;SDS011;9287;49.456;11.064;2022-12-24T03:39:47;4.80;;;1.10;;
18322;SDS011;9287;49.456;11.064;2022-12-24T03:42:15;6.33;;;1.10;;
18322;SDS011;9287;49.456;11.064;2022-12-24T03:44:43;8.97;;;1.13;;
18322;SDS011;9287;49.456;11.064;2022-12-24T03:47:11;7.43;;;1.13;;
18322;SDS011;9287;49.456;11.064;2022-12-24T03:49:40;7.63;;;1.10;;
18322;SDS011;9287;49.456;11.064;2022-12-24T03:52:08;6.47;;;1.00;;
18322;SDS011;9287;49.456;11.064;2022-12-24T03:54:35;4.27;;;1.10;;
18322;SDS011;9287;49.456;11.064;2022-12-24T03:57:03;8.27;;;1.00;;
18322;SDS011;9287;49.456;11.064;2022-12-24T03:59:31;5.57;;;1.03;;
18322;SDS011;9287;49.456;11.064;2022-12-24T04:01:59;3.47;;;1.00;;
18322;SDS011;9287;49.456;11.064;2022-12-24T04:04:27;5.73;;;1.10;;
18322;SDS011;9287;49.456;11.064;2022-12-24T04:06:56;6.87;;;1.00;;
18322;SDS011;9287;49.456;11.064;2022-12-24T04:09:24;5.13;;;0.93;;
18322;SDS011;9287;49.456;11.064;2022-12-24T04:11:51;7.57;;;1.20;;
18322;SDS011;9287;49.456;11.064;2022-12-24T04:14:19;3.33;;;0.97;;
18322;SDS011;9287;49.456;11.064;2022-12-24T04:16:47;2.50;;;0.90;;
18322;SDS011;9287;49.456;11.064;2022-12-24T04:19:15;6.40;;;0.97;;
18322;SDS011;9287;49.456;11.064;2022-12-24T04:21:42;7.50;;;1.20;;
18322;SDS011;9287;49.456;11.064;2022-12-24T04:24:12;8.47;;;1.20;;
18322;SDS011;9287;49.456;11.064;2022-12-24T04:26:40;6.60;;;0.87;;
18322;SDS011;9287;49.456;11.064;2022-12-24T04:29:07;9.73;;;1.10;;
18322;SDS011;9287;49.456;11.064;2022-12-24T04:31:35;8.43;;;1.10;;
18322;SDS011;9287;49.456;11.064;2022-12-24T04:34:03;4.77;;;1.10;;
18322;SDS011;9287;49.456;11.064;2022-12-24T04:36:31;6.57;;;1.30;;
18322;SDS011;9287;49.456;11.064;2022-12-24T04:38:58;7.57;;;0.77;;
18322;SDS011;9287;49.456;11.064;2022-12-24T04:41:28;9.97;;;1.10;;
18322;SDS011;9287;49.456;11.064;2022-12-24T04:43:55;5.67;;;1.00;;
18322;SDS011;9287;49.456;11.064;2022-12-24T04:46:24;3.80;;;0.90;;
18322;SDS011;9287;49.456;11.064;2022-12-24T04:48:56;5.77;;;0.80;;
18322;SDS011;9287;49.456;11.064;2022-12-24T04:51:25;5.70;;;1.13;;
18322;SDS011;9287;49.456;11.064;2022-12-24T04:53:55;7.20;;;1.07;;
18322;SDS011;9287;49.456;11.064;2022-12-24T04:56:23;3.40;;;1.07;;
18322;SDS011;9287;49.456;11.064;2022-12-24T04:58:54;7.67;;;1.17;;
18322;SDS011;9287;49.456;11.064;2022-12-24T05:01:23;3.77;;;0.90;;
18322;SDS011;9287;49.456;11.064;2022-12-24T05:03:53;5.07;;;1.03;;
18322;SDS011;9287;49.456;11.064;2022-12-24T05:06:22;5.80;;;1.63;;
18322;SDS011;9287;49.456;11.064;2022-12-24T05:08:52;4.67;;;0.90;;
18322;SDS011;9287;49.456;11.064;2022-12-24T05:11:20;6.93;;;1.00;;
18322;SDS011;9287;49.456;11.064;2022-12-24T05:13:48;5.90;;;1.10;;
18322;SDS011;9287;49.456;11.064;2022-12-24T05:16:18;5.27;;;1.10;;
18322;SDS011;9287;49.456;11.064;2022-12-24T05:18:47;5.43;;;1.40;;
18322;SDS011;9287;49.456;11.064;2022-12-24T05:21:16;6.57;;;1.00;;
18322;SDS011;9287;49.456;11.064;2022-12-24T05:23:46;4.00;;;1.00;;
18322;SDS011;9287;49.456;11.064;2022-12-24T05:26:31;5.30;;;0.80;;
18322;SDS011;9287;49.456;11.064;2022-12-24T05:29:04;3.07;;;0.63;;
18322;SDS011;9287;49.456;11.064;2022-12-24T05:31:34;6.20;;;1.10;;
18322;SDS011;9287;49.456;11.064;2022-12-24T05:34:02;4.70;;;0.90;;
18322;SDS011;9287;49.456;11.064;2022-12-24T05:36:30;5.23;;;0.87;;
18322;SDS011;9287;49.456;11.064;2022-12-24T05:38:58;6.73;;;1.20;;
18322;SDS011;9287;49.456;11.064;2022-12-24T05:41:26;6.60;;;1.10;;
18322;SDS011;9287;49.456;11.064;2022-12-24T05:43:54;6.67;;;1.10;;
18322;SDS011;9287;49.456;11.064;2022-12-24T05:46:22;6.90;;;1.20;;
18322;SDS011;9287;49.456;11.064;2022-12-24T05:48:52;5.57;;;1.03;;
18322;SDS011;9287;49.456;11.064;2022-12-24T05:51:20;5.57;;;1.07;;
18322;SDS011;9287;49.456;11.064;2022-12-24T05:53:49;3.23;;;0.93;;
18322;SDS011;9287;49.456;11.064;2022-12-24T05:56:19;5.57;;;0.77;;
18322;SDS011;9287;49.456;11.064;2022-12-24T05:58:48;6.37;;;1.23;;
18322;SDS011;9287;49.456;11.064;2022-12-24T06:01:17;4.67;;;0.70;;
18322;SDS011;9287;49.456;11.064;2022-12-24T06:03:45;4.00;;;1.10;;
18322;SDS011;9287;49.456;11.064;2022-12-24T06:06:16;4.87;;;1.13;;
18322;SDS011;9287;49.456;11.064;2022-12-24T06:08:46;5.20;;;0.90;;
18322;SDS011;9287;49.456;11.064;2022-12-24T06:11:16;4.53;;;1.10;;
18322;SDS011;9287;49.456;11.064;2022-12-24T06:13:45;9.33;;;1.40;;
18322;SDS011;9287;49.456;11.064;2022-12-24T06:16:13;3.03;;;0.80;;
18322;SDS011;9287;49.456;11.064;2022-12-24T06:18:43;5.07;;;1.07;;
18322;SDS011;9287;49.456;11.064;2022-12-24T06:21:11;6.53;;;1.13;;
18322;SDS011;9287;49.456;11.064;2022-12-24T06:23:41;4.63;;;0.90;;
18322;SDS011;9287;49.456;11.064;2022-12-24T06:26:10;3.37;;;0.80;;
18322;SDS011;9287;49.456;11.064;2022-12-24T06:28:39;7.57;;;1.40;;
18322;SDS011;9287;49.456;11.064;2022-12-24T06:31:09;10.13;;;1.30;;
18322;SDS011;9287;49.456;11.064;2022-12-24T06:33:39;9.87;;;1.53;;
18322;SDS011;9287;49.456;11.064;2022-12-24T06:36:07;5.27;;;1.23;;
18322;SDS011;9287;49.456;11.064;2022-12-24T06:38:44;5.07;;;0.90;;
18322;SDS011;9287;49.456;11.064;2022-12-24T06:41:12;6.33;;;1.03;;
18322;SDS011;9287;49.456;11.064;2022-12-24T06:43:42;4.90;;;1.20;;
18322;SDS011;9287;49.456;11.064;2022-12-24T06:46:10;5.73;;;1.00;;
18322;SDS011;9287;49.456;11.064;2022-12-24T06:48:38;11.63;;;1.50;;
18322;SDS011;9287;49.456;11.064;2022-12-24T06:51:06;9.63;;;1.30;;
18322;SDS011;9287;49.456;11.064;2022-12-24T06:53:34;9.57;;;1.30;;
18322;SDS011;9287;49.456;11.064;2022-12-24T06:56:03;8.63;;;1.43;;
18322;SDS011;9287;49.456;11.064;2022-12-24T06:58:32;6.53;;;1.20;;
18322;SDS011;9287;49.456;11.064;2022-12-24T07:01:01;8.27;;;1.40;;
18322;SDS011;9287;49.456;11.064;2022-12-24T07:03:29;8.03;;;1.17;;
18322;SDS011;9287;49.456;11.064;2022-12-24T07:05:58;5.83;;;1.27;;
18322;SDS011;9287;49.456;11.064;2022-12-24T07:08:26;6.70;;;1.20;;
18322;SDS011;9287;49.456;11.064;2022-12-24T07:10:54;6.60;;;1.40;;
18322;SDS011;9287;49.456;11.064;2022-12-24T07:13:23;5.77;;;1.10;;
18322;SDS011;9287;49.456;11.064;2022-12-24T07:15:55;6.27;;;1.20;;
18322;SDS011;9287;49.456;11.064;2022-12-24T07:18:24;6.33;;;1.17;;
18322;SDS011;9287;49.456;11.064;2022-12-24T07:20:52;9.80;;;1.50;;
18322;SDS011;9287;49.456;11.064;2022-12-24T07:23:20;5.23;;;1.40;;
18322;SDS011;9287;49.456;11.064;2022-12-24T07:25:48;5.80;;;1.33;;
18322;SDS011;9287;49.456;11.064;2022-12-24T07:28:16;7.30;;;1.00;;
18322;SDS011;9287;49.456;11.064;2022-12-24T07:30:53;9.90;;;1.30;;
18322;SDS011;9287;49.456;11.064;2022-12-24T07:33:22;11.07;;;1.33;;
18322;SDS011;9287;49.456;11.064;2022-12-24T07:35:56;6.27;;;1.33;;
18322;SDS011;9287;49.456;11.064;2022-12-24T07:38:25;9.47;;;1.40;;
18322;SDS011;9287;49.456;11.064;2022-12-24T07:40:53;9.87;;;1.97;;
18322;SDS011;9287;49.456;11.064;2022-12-24T07:43:21;11.30;;;2.10;;
18322;SDS011;9287;49.456;11.064;2022-12-24T07:45:49;7.27;;;1.70;;
18322;SDS011;9287;49.456;11.064;2022-12-24T07:48:18;10.07;;;2.30;;
18322;SDS011;9287;49.456;11.064;2022-12-24T07:50:47;6.40;;;1.63;;
18322;SDS011;9287;49.456;11.064;2022-12-24T07:53:15;10.70;;;2.50;;
18322;SDS011;9287;49.456;11.064;2022-12-24T07:55:43;7.33;;;2.20;;
18322;SDS011;9287;49.456;11.064;2022-12-24T07:58:11;7.87;;;1.87;;
18322;SDS011;9287;49.456;11.064;2022-12-24T08:00:38;9.47;;;2.00;;
18322;SDS011;9287;49.456;11.064;2022-12-24T08:03:08;13.03;;;2.30;;
18322;SDS011;9287;49.456;11.064;2022-12-24T08:05:43;8.83;;;2.10;;
18322;SDS011;9287;49.456;11.064;2022-12-24T08:08:12;9.00;;;2.67;;
18322;SDS011;9287;49.456;11.064;2022-12-24T08:10:40;9.17;;;1.90;;
18322;SDS011;9287;49.456;11.064;2022-12-24T08:13:09;14.10;;;2.73;;
18322;SDS011;9287;49.456;11.064;2022-12-24T08:15:37;10.53;;;3.27;;
18322;SDS011;9287;49.456;11.064;2022-12-24T08:18:04;11.33;;;2.60;;
18322;SDS011;9287;49.456;11.064;2022-12-24T08:20:32;8.50;;;1.80;;
18322;SDS011;9287;49.456;11.064;2022-12-24T08:23:01;9.57;;;2.70;;
18322;SDS011;9287;49.456;11.064;2022-12-24T08:25:29;13.00;;;1.97;;
18322;SDS011;9287;49.456;11.064;2022-12-24T08:27:57;6.87;;;1.60;;
18322;SDS011;9287;49.456;11.064;2022-12-24T08:30:25;10.47;;;1.90;;
18322;SDS011;9287;49.456;11.064;2022-12-24T08:32:52;9.13;;;1.87;;
18322;SDS011;9287;49.456;11.064;2022-12-24T08:35:20;11.47;;;2.07;;
18322;SDS011;9287;49.456;11.064;2022-12-24T08:37:48;10.47;;;1.70;;
18322;SDS011;9287;49.456;11.064;2022-12-24T08:40:17;8.17;;;1.83;;
18322;SDS011;9287;49.456;11.064;2022-12-24T08:42:45;7.40;;;2.10;;
18322;SDS011;9287;49.456;11.064;2022-12-24T08:45:13;9.53;;;2.00;;
18322;SDS011;9287;49.456;11.064;2022-12-24T08:47:40;12.73;;;2.23;;
18322;SDS011;9287;49.456;11.064;2022-12-24T08:50:09;6.70;;;1.80;;
18322;SDS011;9287;49.456;11.064;2022-12-24T08:52:37;11.87;;;2.50;;
18322;SDS011;9287;49.456;11.064;2022-12-24T08:55:05;13.77;;;2.33;;
18322;SDS011;9287;49.456;11.064;2022-12-24T08:57:35;8.53;;;2.10;;
18322;SDS011;9287;49.456;11.064;2022-12-24T09:00:03;9.10;;;1.63;;
18322;SDS011;9287;49.456;11.064;2022-12-24T09:02:31;11.10;;;1.93;;
18322;SDS011;9287;49.456;11.064;2022-12-24T09:05:00;15.50;;;2.37;;
18322;SDS011;9287;49.456;11.064;2022-12-24T09:07:27;8.63;;;1.67;;
18322;SDS011;9287;49.456;11.064;2022-12-24T09:09:55;12.77;;;2.10;;
18322;SDS011;9287;49.456;11.064;2022-12-24T09:12:23;8.27;;;2.10;;
18322;SDS011;9287;49.456;11.064;2022-12-24T09:14:52;9.10;;;1.70;;
18322;SDS011;9287;49.456;11.064;2022-12-24T09:17:28;11.47;;;1.93;;
18322;SDS011;9287;49.456;11.064;2022-12-24T09:19:55;9.40;;;2.20;;
18322;SDS011;9287;49.456;11.064;2022-12-24T09:22:23;8.37;;;1.60;;
18322;SDS011;9287;49.456;11.064;2022-12-24T09:24:52;7.97;;;2.03;;
18322;SDS011;9287;49.456;11.064;2022-12-24T09:27:20;11.40;;;2.53;;
18322;SDS011;9287;49.456;11.064;2022-12-24T09:29:48;10.63;;;1.90;;
18322;SDS011;9287;49.456;11.064;2022-12-24T09:32:17;8.20;;;1.90;;
18322;SDS011;9287;49.456;11.064;2022-12-24T09:34:45;13.20;;;2.50;;
18322;SDS011;9287;49.456;11.064;2022-12-24T09:37:13;7.30;;;1.87;;
18322;SDS011;9287;49.456;11.064;2022-12-24T09:39:40;12.00;;;2.07;;
18322;SDS011;9287;49.456;11.064;2022-12-24T09:42:10;13.73;;;1.90;;
18322;SDS011;9287;49.456;11.064;2022-12-24T09:44:49;13.97;;;2.30;;
18322;SDS011;9287;49.456;11.064;2022-12-24T09:47:27;17.33;;;2.47;;
18322;SDS011;9287;49.456;11.064;2022-12-24T09:50:00;11.33;;;2.20;;
18322;SDS011;9287;49.456;11.064;2022-12-24T09:52:32;7.10;;;1.93;;
18322;SDS011;9287;49.456;11.064;2022-12-24T09:55:05;13.00;;;2.67;;
18322;SDS011;9287;49.456;11.064;2022-12-24T09:57:41;11.57;;;2.23;;
18322;SDS011;9287;49.456;11.064;2022-12-24T10:00:15;11.17;;;2.37;;
18322;SDS011;9287;49.456;11.064;2022-12-24T10:02:47;14.03;;;2.37;;
18322;SDS011;9287;49.456;11.064;2022-12-24T10:05:26;12.30;;;2.13;;
18322;SDS011;9287;49.456;11.064;2022-12-24T10:08:01;13.03;;;1.97;;
18322;SDS011;9287;49.456;11.064;2022-12-24T10:10:35;12.13;;;2.13;;
18322;SDS011;9287;49.456;11.064;2022-12-24T10:13:11;9.63;;;1.90;;
18322;SDS011;9287;49.456;11.064;2022-12-24T10:15:49;10.43;;;1.90;;
18322;SDS011;9287;49.456;11.064;2022-12-24T10:18:26;10.00;;;2.50;;
18322;SDS011;9287;49.456;11.064;2022-12-24T10:21:04;14.63;;;3.20;;
18322;SDS011;9287;49.456;11.064;2022-12-24T10:23:38;19.43;;;4.23;;
18322;SDS011;9287;49.456;11.064;2022-12-24T10:26:14;14.27;;;2.57;;
18322;SDS011;9287;49.456;11.064;2022-12-24T10:28:50;9.53;;;1.87;;
18322;SDS011;9287;49.456;11.064;2022-12-24T10:31:22;10.73;;;2.00;;
18322;SDS011;9287;49.456;11.064;2022-12-24T10:33:55;15.47;;;2.37;;
18322;SDS011;9287;49.456;11.064;2022-12-24T10:36:27;10.07;;;1.97;;
18322;SDS011;9287;49.456;11.064;2022-12-24T10:38:56;11.83;;;1.80;;
18322;SDS011;9287;49.456;11.064;2022-12-24T10:41:24;12.13;;;2.60;;
18322;SDS011;9287;49.456;11.064;2022-12-24T10:43:54;11.73;;;2.10;;
18322;SDS011;9287;49.456;11.064;2022-12-24T10:46:24;9.87;;;1.80;;
18322;SDS011;9287;49.456;11.064;2022-12-24T10:49:01;12.83;;;2.80;;
18322;SDS011;9287;49.456;11.064;2022-12-24T10:51:33;10.47;;;2.17;;
18322;SDS011;9287;49.456;11.064;2022-12-24T10:54:07;8.43;;;1.60;;
18322;SDS011;9287;49.456;11.064;2022-12-24T10:56:48;10.83;;;1.20;;
18322;SDS011;9287;49.456;11.064;2022-12-24T10:59:21;11.37;;;2.47;;
18322;SDS011;9287;49.456;11.064;2022-12-24T11:01:52;12.53;;;2.00;;
18322;SDS011;9287;49.456;11.064;2022-12-24T11:04:23;14.57;;;2.70;;
18322;SDS011;9287;49.456;11.064;2022-12-24T11:06:52;8.40;;;1.90;;
18322;SDS011;9287;49.456;11.064;2022-12-24T11:09:23;8.67;;;1.80;;
18322;SDS011;9287;49.456;11.064;2022-12-24T11:11:53;9.63;;;1.67;;
18322;SDS011;9287;49.456;11.064;2022-12-24T11:14:22;12.33;;;1.93;;
18322;SDS011;9287;49.456;11.064;2022-12-24T11:16:53;15.03;;;2.63;;
18322;SDS011;9287;49.456;11.064;2022-12-24T11:19:28;10.77;;;1.87;;
18322;SDS011;9287;49.456;11.064;2022-12-24T11:21:58;11.50;;;2.17;;
18322;SDS011;9287;49.456;11.064;2022-12-24T11:24:29;12.77;;;2.07;;
18322;SDS011;9287;49.456;11.064;2022-12-24T11:29:49;8.00;;;1.93;;
18322;SDS011;9287;49.456;11.064;2022-12-24T11:32:17;10.67;;;1.90;;
18322;SDS011;9287;49.456;11.064;2022-12-24T11:34:48;9.83;;;1.90;;
18322;SDS011;9287;49.456;11.064;2022-12-24T11:37:17;10.30;;;2.43;;
18322;SDS011;9287;49.456;11.064;2022-12-24T11:39:48;8.73;;;1.90;;
18322;SDS011;9287;49.456;11.064;2022-12-24T11:42:28;11.83;;;1.67;;
18322;SDS011;9287;49.456;11.064;2022-12-24T11:44:58;9.50;;;1.30;;
18322;SDS011;9287;49.456;11.064;2022-12-24T11:47:30;6.73;;;1.50;;
18322;SDS011;9287;49.456;11.064;2022-12-24T11:52:49;9.03;;;1.97;;
18322;SDS011;9287;49.456;11.064;2022-12-24T11:55:23;10.83;;;1.67;;
18322;SDS011;9287;49.456;11.064;2022-12-24T11:57:59;11.83;;;1.80;;
18322;SDS011;9287;49.456;11.064;2022-12-24T12:00:32;10.43;;;1.90;;
18322;SDS011;9287;49.456;11.064;2022-12-24T12:02:59;7.90;;;1.37;;
18322;SDS011;9287;49.456;11.064;2022-12-24T12:05:31;8.07;;;1.90;;
18322;SDS011;9287;49.456;11.064;2022-12-24T12:08:02;8.50;;;1.50;;
18322;SDS011;9287;49.456;11.064;2022-12-24T12:10:37;6.87;;;1.50;;
18322;SDS011;9287;49.456;11.064;2022-12-24T12:13:09;7.43;;;1.70;;
18322;SDS011;9287;49.456;11.064;2022-12-24T12:15:42;7.97;;;1.77;;
18322;SDS011;9287;49.456;11.064;2022-12-24T12:18:14;15.27;;;2.33;;
18322;SDS011;9287;49.456;11.064;2022-12-24T12:20:47;11.27;;;1.60;;
18322;SDS011;9287;49.456;11.064;2022-12-24T12:23:19;8.53;;;1.60;;
18322;SDS011;9287;49.456;11.064;2022-12-24T12:25:53;9.40;;;1.50;;
18322;SDS011;9287;49.456;11.064;2022-12-24T12:28:25;10.30;;;1.90;;
18322;SDS011;9287;49.456;11.064;2022-12-24T12:30:58;12.30;;;2.10;;
18322;SDS011;9287;49.456;11.064;2022-12-24T12:33:38;18.30;;;2.37;;
18322;SDS011;9287;49.456;11.064;2022-12-24T12:36:10;8.57;;;1.57;;
18322;SDS011;9287;49.456;11.064;2022-12-24T12:38:42;12.33;;;2.40;;
18322;SDS011;9287;49.456;11.064;2022-12-24T12:41:24;12.83;;;1.80;;
18322;SDS011;9287;49.456;11.064;2022-12-24T12:47:13;17.17;;;2.80;;
18322;SDS011;9287;49.456;11.064;2022-12-24T12:49:56;9.27;;;1.60;;
18322;SDS011;9287;49.456;11.064;2022-12-24T12:52:37;9.90;;;1.47;;
18322;SDS011;9287;49.456;11.064;2022-12-24T12:55:17;10.97;;;2.00;;
18322;SDS011;9287;49.456;11.064;2022-12-24T12:57:54;4.43;;;1.13;;
18322;SDS011;9287;49.456;11.064;2022-12-24T13:00:27;10.70;;;1.97;;
18322;SDS011;9287;49.456;11.064;2022-12-24T13:03:07;7.47;;;1.90;;
18322;SDS011;9287;49.456;11.064;2022-12-24T13:06:12;13.03;;;2.50;;
18322;SDS011;9287;49.456;11.064;2022-12-24T13:09:17;10.70;;;2.03;;
18322;SDS011;9287;49.456;11.064;2022-12-24T13:12:11;11.77;;;2.23;;
18322;SDS011;9287;49.456;11.064;2022-12-24T13:14:55;11.73;;;2.33;;
18322;SDS011;9287;49.456;11.064;2022-12-24T13:17:35;13.17;;;1.90;;
18322;SDS011;9287;49.456;11.064;2022-12-24T13:20:17;13.67;;;1.77;;
18322;SDS011;9287;49.456;11.064;2022-12-24T13:22:48;11.33;;;2.17;;
18322;SDS011;9287;49.456;11.064;2022-12-24T13:25:22;12.63;;;2.00;;
18322;SDS011;9287;49.456;11.064;2022-12-24T13:27:55;13.13;;;1.87;;
18322;SDS011;9287;49.456;11.064;2022-12-24T13:30:30;9.37;;;2.03;;
18322;SDS011;9287;49.456;11.064;2022-12-24T13:33:00;12.10;;;2.30;;
18322;SDS011;9287;49.456;11.064;2022-12-24T13:35:30;10.90;;;3.13;;
18322;SDS011;9287;49.456;11.064;2022-12-24T13:38:29;11.70;;;2.13;;
18322;SDS011;9287;49.456;11.064;2022-12-24T13:44:17;10.97;;;2.20;;
18322;SDS011;9287;49.456;11.064;2022-12-24T13:46:48;8.83;;;2.17;;
18322;SDS011;9287;49.456;11.064;2022-12-24T13:49:28;9.73;;;2.60;;
18322;SDS011;9287;49.456;11.064;2022-12-24T13:52:06;8.20;;;1.53;;
18322;SDS011;9287;49.456;11.064;2022-12-24T13:54:59;11.83;;;1.53;;
18322;SDS011;9287;49.456;11.064;2022-12-24T13:57:34;9.40;;;1.80;;
18322;SDS011;9287;49.456;11.064;2022-12-24T14:00:17;9.57;;;1.80;;
18322;SDS011;9287;49.456;11.064;2022-12-24T14:03:01;12.80;;;1.67;;
18322;SDS011;9287;49.456;11.064;2022-12-24T14:05:35;7.43;;;1.60;;
18322;SDS011;9287;49.456;11.064;2022-12-24T14:08:06;8.13;;;1.70;;
18322;SDS011;9287;49.456;11.064;2022-12-24T14:10:37;12.93;;;1.87;;
18322;SDS011;9287;49.456;11.064;2022-12-24T14:16:10;8.33;;;1.70;;
18322;SDS011;9287;49.456;11.064;2022-12-24T14:18:41;13.13;;;1.87;;
18322;SDS011;9287;49.456;11.064;2022-12-24T14:21:15;13.00;;;1.57;;
18322;SDS011;9287;49.456;11.064;2022-12-24T14:23:48;9.20;;;1.60;;
18322;SDS011;9287;49.456;11.064;2022-12-24T14:26:20;11.87;;;2.20;;
18322;SDS011;9287;49.456;11.064;2022-12-24T14:28:52;7.93;;;1.80;;
18322;SDS011;9287;49.456;11.064;2022-12-24T14:31:23;12.77;;;2.03;;
18322;SDS011;9287;49.456;11.064;2022-12-24T14:33:51;10.20;;;2.27;;
18322;SDS011;9287;49.456;11.064;2022-12-24T14:36:19;8.20;;;1.80;;
18322;SDS011;9287;49.456;11.064;2022-12-24T14:38:49;13.70;;;2.37;;
18322;SDS011;9287;49.456;11.064;2022-12-24T14:44:15;11.47;;;2.00;;
18322;SDS011;9287;49.456;11.064;2022-12-24T14:47:04;12.20;;;2.00;;
18322;SDS011;9287;49.456;11.064;2022-12-24T14:49:46;8.30;;;2.10;;
18322;SDS011;9287;49.456;11.064;2022-12-24T14:52:26;11.60;;;1.83;;
18322;SDS011;9287;49.456;11.064;2022-12-24T14:55:27;8.23;;;2.13;;
18322;SDS011;9287;49.456;11.064;2022-12-24T15:00:53;15.97;;;2.43;;
18322;SDS011;9287;49.456;11.064;2022-12-24T15:03:25;8.17;;;1.70;;
18322;SDS011;9287;49.456;11.064;2022-12-24T15:05:54;10.77;;;2.00;;
18322;SDS011;9287;49.456;11.064;2022-12-24T15:08:28;12.77;;;1.83;;
18322;SDS011;9287;49.456;11.064;2022-12-24T15:10:59;10.37;;;1.97;;
18322;SDS011;9287;49.456;11.064;2022-12-24T15:13:34;12.40;;;1.63;;
18322;SDS011;9287;49.456;11.064;2022-12-24T15:16:04;9.40;;;1.80;;
18322;SDS011;9287;49.456;11.064;2022-12-24T15:18:36;8.60;;;1.57;;
18322;SDS011;9287;49.456;11.064;2022-12-24T15:21:13;11.13;;;2.00;;
18322;SDS011;9287;49.456;11.064;2022-12-24T15:23:44;9.43;;;1.60;;
18322;SDS011;9287;49.456;11.064;2022-12-24T15:26:19;12.73;;;2.47;;
18322;SDS011;9287;49.456;11.064;2022-12-24T15:28:50;6.20;;;1.50;;
18322;SDS011;9287;49.456;11.064;2022-12-24T15:31:27;7.20;;;1.77;;
18322;SDS011;9287;49.456;11.064;2022-12-24T15:33:58;6.93;;;1.70;;
18322;SDS011;9287;49.456;11.064;2022-12-24T15:36:27;9.80;;;2.20;;